CheckWX is a tool to help pilots better visualize weather data.  It is not intended as a substitute for an official pre-flight weather briefing.

09:45:54 UTC

EFTP TAF
Tampere-Pirkkala Airport
Tampere / Pirkkala, Finland
TAF EFTP 280829Z 2809/2909 02005KT CAVOK

Feb-28@
09:00 UTC

Feb-28 @ 09:00 UTC

Feb-29@
09:00 UTC

Feb-29 @ 09:00 UTC

TAF EFTP 280829Z 2809/2909 02005KT CAVOK
Wind
  • 020° at 5 KTS
Conditions
No significant weather
Cloud Levels
  • No significant clouds